createdAt,value
2023-04-18T00:00:01.078Z,54.07
2023-04-18T00:00:24.798Z,54.04
2023-04-18T00:00:49.467Z,53.98
2023-04-18T00:01:12.455Z,54.13
2023-04-18T00:01:38.737Z,54.10
2023-04-18T00:02:02.422Z,54.15
2023-04-18T00:02:27.478Z,54.23
2023-04-18T00:02:54.298Z,54.13
2023-04-18T00:03:17.886Z,54.20
2023-04-18T00:03:41.310Z,54.20
2023-04-18T00:04:05.601Z,54.19
2023-04-18T00:04:29.764Z,54.29
2023-04-18T00:04:54.689Z,54.27
2023-04-18T00:05:18.471Z,54.29
2023-04-18T00:05:41.905Z,54.28
2023-04-18T00:06:06.010Z,54.43
2023-04-18T00:06:30.135Z,54.28
2023-04-18T00:06:53.243Z,54.28
2023-04-18T00:07:16.679Z,54.21
2023-04-18T00:07:39.773Z,54.25
2023-04-18T00:08:02.994Z,54.20
2023-04-18T00:08:26.235Z,54.20
2023-04-18T00:08:49.428Z,54.31
2023-04-18T00:09:12.368Z,54.22
2023-04-18T00:09:35.958Z,54.41
2023-04-18T00:09:59.074Z,54.34
2023-04-18T00:10:22.392Z,54.23
2023-04-18T00:10:45.820Z,54.20
2023-04-18T00:11:09.058Z,54.26
2023-04-18T00:11:32.357Z,54.31
2023-04-18T00:11:55.765Z,54.45
2023-04-18T00:12:19.016Z,54.62
2023-04-18T00:12:43.634Z,54.35
2023-04-18T00:13:07.672Z,54.31
2023-04-18T00:13:32.822Z,54.40
2023-04-18T00:13:57.510Z,54.41
2023-04-18T00:14:20.928Z,54.29
2023-04-18T00:14:44.014Z,54.39
2023-04-18T00:15:09.679Z,54.36
2023-04-18T00:15:35.475Z,54.42
2023-04-18T00:15:58.565Z,54.44
2023-04-18T00:16:22.537Z,54.33
2023-04-18T00:16:46.540Z,54.39
2023-04-18T00:17:10.491Z,54.39
2023-04-18T00:17:33.909Z,54.37
2023-04-18T00:17:56.975Z,54.26
2023-04-18T00:18:20.216Z,54.36
2023-04-18T00:18:43.159Z,54.36
2023-04-18T00:19:06.342Z,54.33
2023-04-18T00:19:30.080Z,54.35
2023-04-18T00:19:53.695Z,54.40
2023-04-18T00:20:16.822Z,54.37
2023-04-18T00:20:40.025Z,54.42
2023-04-18T00:21:03.867Z,54.34
2023-04-18T00:21:26.833Z,54.37
2023-04-18T00:21:50.196Z,54.32
2023-04-18T00:22:13.925Z,54.45
2023-04-18T00:22:42.739Z,54.50
2023-04-18T00:23:06.413Z,54.41
2023-04-18T00:23:30.446Z,54.40
2023-04-18T00:23:53.486Z,54.44
2023-04-18T00:24:16.950Z,54.49
2023-04-18T00:24:40.166Z,54.43
2023-04-18T00:25:03.179Z,54.39
2023-04-18T00:25:26.809Z,54.35
2023-04-18T00:25:49.941Z,54.39
2023-04-18T00:26:13.439Z,54.50
2023-04-18T00:26:37.272Z,54.44
2023-04-18T00:27:01.816Z,54.36
2023-04-18T00:27:24.836Z,54.38
2023-04-18T00:27:49.792Z,54.34
2023-04-18T00:28:13.827Z,54.39
2023-04-18T00:28:37.033Z,54.41
2023-04-18T00:29:00.166Z,54.27
2023-04-18T00:29:23.503Z,54.36
2023-04-18T00:29:49.337Z,54.34
2023-04-18T00:30:12.865Z,54.28
2023-04-18T00:30:36.096Z,54.39
2023-04-18T00:31:00.975Z,54.46
2023-04-18T00:31:24.157Z,54.50
2023-04-18T00:31:47.269Z,54.41
2023-04-18T00:32:10.228Z,54.37
2023-04-18T00:32:34.712Z,54.48
2023-04-18T00:32:58.090Z,54.38
2023-04-18T00:33:21.264Z,54.53
2023-04-18T00:33:44.570Z,54.23
2023-04-18T00:34:07.551Z,54.31
2023-04-18T00:34:30.698Z,54.52
2023-04-18T00:34:54.020Z,54.44
2023-04-18T00:35:18.869Z,54.49
2023-04-18T00:35:42.522Z,54.40
2023-04-18T00:36:06.140Z,54.45
2023-04-18T00:36:31.280Z,54.50
2023-04-18T00:36:54.303Z,54.44
2023-04-18T00:37:18.125Z,54.76
2023-04-18T00:37:41.239Z,54.57
2023-04-18T00:38:05.163Z,54.59
2023-04-18T00:38:28.536Z,54.66
2023-04-18T00:38:51.499Z,54.66
2023-04-18T00:39:14.577Z,54.65
2023-04-18T00:39:38.760Z,54.62
2023-04-18T00:40:01.762Z,54.57
2023-04-18T00:40:25.610Z,54.68
2023-04-18T00:40:48.917Z,54.61
2023-04-18T00:41:12.237Z,54.63
2023-04-18T00:41:35.354Z,54.51
2023-04-18T00:41:58.481Z,54.63
2023-04-18T00:42:22.287Z,54.75
2023-04-18T00:42:45.507Z,54.55
2023-04-18T00:43:12.735Z,54.74
2023-04-18T00:43:37.560Z,54.69
2023-04-18T00:44:00.981Z,54.51
2023-04-18T00:44:24.399Z,54.93
2023-04-18T00:44:47.927Z,54.68
2023-04-18T00:45:11.389Z,54.72
2023-04-18T00:45:34.768Z,54.69
2023-04-18T00:45:58.949Z,54.81
2023-04-18T00:46:22.372Z,54.82
2023-04-18T00:46:45.615Z,54.81
2023-04-18T00:47:08.761Z,54.86
2023-04-18T00:47:31.731Z,54.87
2023-04-18T00:47:55.854Z,54.88
2023-04-18T00:48:18.914Z,54.94
2023-04-18T00:48:42.131Z,54.77
2023-04-18T00:49:05.962Z,54.76
2023-04-18T00:49:30.202Z,55.00
2023-04-18T00:49:53.175Z,54.94
2023-04-18T00:50:16.466Z,54.80
2023-04-18T00:50:40.680Z,55.02
2023-04-18T00:51:05.729Z,54.93
2023-04-18T00:51:29.457Z,54.99
2023-04-18T00:51:52.400Z,55.06
2023-04-18T00:52:15.678Z,54.98
2023-04-18T00:52:39.002Z,55.08
2023-04-18T00:53:02.215Z,55.14
2023-04-18T00:53:25.553Z,55.08
2023-04-18T00:53:48.756Z,55.22
2023-04-18T00:54:13.825Z,55.15
2023-04-18T00:54:37.027Z,55.15
2023-04-18T00:55:00.327Z,55.09
2023-04-18T00:55:23.368Z,55.08
2023-04-18T00:55:46.574Z,55.19
2023-04-18T00:56:09.651Z,55.20
2023-04-18T00:56:32.701Z,55.25
2023-04-18T00:56:55.916Z,55.13
2023-04-18T00:57:19.001Z,55.21
2023-04-18T00:57:42.357Z,55.16
2023-04-18T00:58:06.488Z,55.25
2023-04-18T00:58:30.007Z,55.28
2023-04-18T00:58:54.359Z,55.25
2023-04-18T00:59:17.667Z,55.21
2023-04-18T00:59:41.805Z,55.23
2023-04-18T01:00:08.832Z,55.12
2023-04-18T01:00:33.151Z,55.22
2023-04-18T01:00:56.677Z,55.27
2023-04-18T01:01:20.119Z,55.32
2023-04-18T01:01:45.352Z,55.44
2023-04-18T01:02:08.797Z,55.31
2023-04-18T01:02:32.170Z,55.33
2023-04-18T01:02:56.166Z,55.39
2023-04-18T01:03:23.096Z,55.40
2023-04-18T01:03:46.430Z,55.35
2023-04-18T01:04:11.327Z,55.29
2023-04-18T01:04:37.584Z,55.40
2023-04-18T01:05:00.910Z,55.35
2023-04-18T01:05:24.662Z,55.46
2023-04-18T01:05:47.981Z,55.46
2023-04-18T01:06:11.264Z,55.60
2023-04-18T01:06:35.106Z,55.50
2023-04-18T01:06:58.213Z,55.54
2023-04-18T01:07:21.835Z,55.59
2023-04-18T01:07:45.670Z,55.52
2023-04-18T01:08:08.779Z,55.62
2023-04-18T01:08:31.930Z,55.60
2023-04-18T01:08:56.141Z,55.70
2023-04-18T01:09:20.884Z,55.66
2023-04-18T01:09:44.319Z,55.60
2023-04-18T01:10:08.338Z,55.78
2023-04-18T01:10:32.068Z,55.79
2023-04-18T01:10:55.080Z,55.72
2023-04-18T01:11:18.502Z,55.80
2023-04-18T01:11:43.864Z,55.77
2023-04-18T01:12:07.085Z,55.80
2023-04-18T01:12:30.602Z,55.92
2023-04-18T01:13:12.436Z,55.98
2023-04-18T01:13:35.548Z,55.83
2023-04-18T01:14:05.923Z,55.94
2023-04-18T01:14:31.499Z,56.03
2023-04-18T01:14:55.414Z,55.94
2023-04-18T01:15:18.553Z,56.08
2023-04-18T01:15:45.562Z,56.00
2023-04-18T01:16:08.598Z,56.04
2023-04-18T01:16:37.137Z,56.03
2023-04-18T01:17:01.773Z,56.08
2023-04-18T01:17:25.074Z,56.18
2023-04-18T01:17:48.268Z,56.22
2023-04-18T01:18:11.894Z,56.15
2023-04-18T01:18:37.272Z,56.25
2023-04-18T01:19:04.257Z,56.16
2023-04-18T01:19:28.087Z,56.31
2023-04-18T01:19:51.284Z,56.07
2023-04-18T01:20:17.020Z,56.20
2023-04-18T01:20:41.661Z,56.25
2023-04-18T01:21:06.385Z,56.24
2023-04-18T01:21:31.358Z,56.34
2023-04-18T01:21:54.452Z,56.30
2023-04-18T01:22:17.664Z,56.19
2023-04-18T01:22:40.977Z,56.37
2023-04-18T01:23:04.605Z,56.37
2023-04-18T01:23:30.684Z,56.41
2023-04-18T01:23:53.695Z,56.44
2023-04-18T01:24:17.123Z,56.35
2023-04-18T01:24:40.134Z,56.60
2023-04-18T01:25:07.061Z,56.45
2023-04-18T01:25:30.854Z,56.44
2023-04-18T01:25:53.975Z,56.56
2023-04-18T01:26:17.310Z,56.48
2023-04-18T01:26:41.119Z,56.57
2023-04-18T01:27:04.649Z,56.55
2023-04-18T01:27:29.933Z,56.54
2023-04-18T01:27:54.559Z,56.76
2023-04-18T01:28:18.383Z,56.64
2023-04-18T01:28:41.358Z,56.56
2023-04-18T01:29:04.612Z,56.64
2023-04-18T01:29:27.724Z,56.68
2023-04-18T01:29:52.992Z,56.70
2023-04-18T01:30:16.922Z,56.74
2023-04-18T01:30:40.339Z,56.88
2023-04-18T01:31:03.508Z,56.81
2023-04-18T01:31:26.673Z,56.74
2023-04-18T01:31:49.982Z,56.73
2023-04-18T01:32:13.308Z,56.80
2023-04-18T01:32:36.441Z,56.70
2023-04-18T01:33:03.142Z,56.51
2023-04-18T01:33:26.473Z,56.67
2023-04-18T01:33:49.651Z,56.57
2023-04-18T01:34:12.772Z,56.59
2023-04-18T01:34:37.926Z,56.68
2023-04-18T01:35:02.379Z,56.66
2023-04-18T01:35:25.479Z,56.70
2023-04-18T01:35:48.796Z,56.85
2023-04-18T01:36:11.910Z,56.71
2023-04-18T01:36:35.142Z,56.70
2023-04-18T01:36:59.277Z,56.66
2023-04-18T01:37:22.584Z,56.72
2023-04-18T01:37:45.517Z,56.90
2023-04-18T01:38:08.723Z,56.81
2023-04-18T01:38:33.165Z,56.73
2023-04-18T01:38:57.187Z,56.75
2023-04-18T01:39:20.214Z,56.75
2023-04-18T01:39:43.413Z,56.72
2023-04-18T01:40:08.780Z,56.66
2023-04-18T01:40:34.250Z,56.74
2023-04-18T01:40:57.461Z,56.71
2023-04-18T01:41:21.085Z,56.78
2023-04-18T01:41:44.925Z,56.85
2023-04-18T01:42:07.979Z,56.77
2023-04-18T01:42:32.064Z,56.80
2023-04-18T01:42:55.260Z,57.01
2023-04-18T01:43:18.399Z,56.88
2023-04-18T01:43:41.613Z,56.85
2023-04-18T01:44:05.031Z,56.91
2023-04-18T01:44:28.357Z,56.95
2023-04-18T01:44:51.565Z,56.91
2023-04-18T01:45:14.689Z,56.97
2023-04-18T01:45:37.850Z,56.78
2023-04-18T01:46:01.113Z,56.86
2023-04-18T01:46:24.874Z,56.96
2023-04-18T01:46:47.992Z,56.76
2023-04-18T01:47:11.171Z,56.75
2023-04-18T01:47:34.640Z,56.80
2023-04-18T01:47:58.571Z,56.84
2023-04-18T01:48:21.577Z,56.71
2023-04-18T01:48:44.652Z,56.75
2023-04-18T01:49:08.441Z,56.66
2023-04-18T01:49:31.902Z,56.70
2023-04-18T01:49:55.866Z,56.65
2023-04-18T01:50:18.950Z,56.62
2023-04-18T01:50:42.068Z,56.74
2023-04-18T01:51:06.848Z,56.85
2023-04-18T01:51:31.578Z,56.83
2023-04-18T01:51:54.679Z,56.75
2023-04-18T01:52:17.898Z,56.69
2023-04-18T01:52:41.474Z,56.80
2023-04-18T01:53:05.554Z,56.86
2023-04-18T01:53:28.978Z,56.74
2023-04-18T01:53:52.089Z,56.80
2023-04-18T01:54:15.756Z,56.81
2023-04-18T01:54:39.033Z,56.84
2023-04-18T01:55:02.612Z,56.92
2023-04-18T01:55:25.874Z,56.89
2023-04-18T01:55:51.238Z,56.91
2023-04-18T01:56:14.487Z,57.02
2023-04-18T01:56:37.670Z,56.98
2023-04-18T01:57:01.103Z,57.00
2023-04-18T01:57:24.618Z,56.99
2023-04-18T01:57:47.730Z,56.90
2023-04-18T01:58:11.150Z,56.93
2023-04-18T01:58:34.468Z,56.95
2023-04-18T01:58:57.500Z,57.04
2023-04-18T01:59:20.706Z,57.02
2023-04-18T01:59:43.911Z,57.03
2023-04-18T02:00:07.959Z,56.87
2023-04-18T02:00:40.078Z,57.12
2023-04-18T02:01:04.275Z,57.00
2023-04-18T02:01:27.557Z,57.00
2023-04-18T02:01:50.782Z,57.18
2023-04-18T02:02:13.975Z,57.06
2023-04-18T02:02:37.416Z,57.14
2023-04-18T02:03:00.925Z,57.19
2023-04-18T02:03:24.855Z,57.22
2023-04-18T02:03:48.772Z,57.29
2023-04-18T02:04:12.187Z,57.36
2023-04-18T02:04:36.007Z,57.24
2023-04-18T02:04:59.263Z,57.25
2023-04-18T02:05:22.402Z,57.29
2023-04-18T02:05:46.477Z,57.32
2023-04-18T02:06:10.203Z,57.27
2023-04-18T02:06:33.433Z,57.17
2023-04-18T02:06:56.461Z,57.28
2023-04-18T02:07:19.380Z,57.19
2023-04-18T02:07:43.087Z,57.21
2023-04-18T02:08:06.187Z,57.31
2023-04-18T02:08:31.046Z,57.47
2023-04-18T02:08:54.050Z,57.39
2023-04-18T02:09:17.271Z,57.41
2023-04-18T02:09:40.349Z,57.41
2023-04-18T02:10:03.613Z,57.65
2023-04-18T02:10:26.954Z,57.50
2023-04-18T02:10:50.786Z,57.44
2023-04-18T02:11:14.575Z,57.50
2023-04-18T02:11:37.689Z,57.67
2023-04-18T02:12:01.952Z,57.40
2023-04-18T02:12:25.560Z,57.57
2023-04-18T02:12:48.566Z,57.59
2023-04-18T02:13:11.719Z,57.56
2023-04-18T02:13:35.313Z,57.73
2023-04-18T02:14:03.025Z,57.71
2023-04-18T02:14:29.407Z,57.66
2023-04-18T02:14:56.819Z,57.80
2023-04-18T02:15:20.031Z,57.87
2023-04-18T02:15:46.216Z,57.81
2023-04-18T02:16:12.928Z,57.86
2023-04-18T02:16:35.994Z,57.86
2023-04-18T02:16:59.550Z,57.89
2023-04-18T02:17:23.750Z,57.89
2023-04-18T02:17:47.056Z,57.94
2023-04-18T02:18:12.273Z,57.93
2023-04-18T02:18:37.219Z,57.96
2023-04-18T02:19:00.672Z,57.99
2023-04-18T02:19:24.573Z,57.97
2023-04-18T02:19:48.319Z,58.28
2023-04-18T02:20:11.536Z,58.10
2023-04-18T02:20:35.146Z,58.17
2023-04-18T02:20:58.181Z,58.14
2023-04-18T02:21:22.209Z,58.12
2023-04-18T02:21:45.201Z,58.12
2023-04-18T02:22:08.431Z,58.17
2023-04-18T02:22:31.736Z,58.18
2023-04-18T02:22:58.122Z,58.29
2023-04-18T02:23:21.234Z,58.33
2023-04-18T02:23:44.461Z,58.38
2023-04-18T02:24:07.468Z,58.34
2023-04-18T02:24:30.582Z,58.39
2023-04-18T02:24:54.308Z,58.41
2023-04-18T02:25:18.760Z,58.50
2023-04-18T02:25:42.990Z,58.44
2023-04-18T02:26:06.209Z,58.49
2023-04-18T02:26:29.529Z,58.48
2023-04-18T02:26:54.221Z,58.49
2023-04-18T02:27:18.006Z,58.49
2023-04-18T02:27:41.112Z,58.40
2023-04-18T02:28:04.228Z,58.48
2023-04-18T02:28:27.549Z,58.55
2023-04-18T02:28:50.885Z,58.61
2023-04-18T02:29:14.019Z,58.58
2023-04-18T02:29:37.135Z,58.81
2023-04-18T02:30:00.617Z,58.78
2023-04-18T02:30:23.938Z,58.75
2023-04-18T02:30:46.949Z,58.84
2023-04-18T02:31:15.010Z,58.85
2023-04-18T02:31:39.566Z,58.70
2023-04-18T02:32:02.664Z,58.81
2023-04-18T02:32:26.295Z,58.74
2023-04-18T02:32:52.507Z,58.73
2023-04-18T02:33:19.106Z,58.57
2023-04-18T02:33:42.982Z,58.75
2023-04-18T02:34:06.077Z,58.75
2023-04-18T02:34:29.200Z,58.83
2023-04-18T02:34:52.310Z,58.86
2023-04-18T02:35:15.419Z,58.79
2023-04-18T02:35:39.051Z,58.91
2023-04-18T02:36:02.072Z,58.88
2023-04-18T02:36:28.351Z,59.01
2023-04-18T02:36:51.460Z,59.01
2023-04-18T02:37:14.614Z,58.94
2023-04-18T02:37:37.693Z,58.92
2023-04-18T02:38:01.026Z,58.87
2023-04-18T02:38:24.422Z,58.92
2023-04-18T02:38:48.564Z,58.95
2023-04-18T02:39:11.922Z,58.98
2023-04-18T02:39:35.034Z,58.96
2023-04-18T02:39:58.414Z,58.82
2023-04-18T02:40:26.128Z,58.90
2023-04-18T02:40:49.244Z,58.84
2023-04-18T02:41:15.408Z,58.80
2023-04-18T02:41:39.471Z,58.89
2023-04-18T02:42:02.778Z,58.98
2023-04-18T02:42:26.097Z,58.96
2023-04-18T02:42:49.559Z,58.83
2023-04-18T02:43:12.738Z,58.87
2023-04-18T02:43:35.953Z,58.74
2023-04-18T02:43:59.690Z,58.94
2023-04-18T02:44:22.635Z,58.85
2023-04-18T02:44:45.805Z,58.92
2023-04-18T02:45:09.331Z,58.88
2023-04-18T02:45:33.405Z,58.93
2023-04-18T02:45:57.132Z,59.00
2023-04-18T02:46:20.232Z,59.06
2023-04-18T02:46:44.341Z,58.99
2023-04-18T02:47:09.027Z,59.03
2023-04-18T02:47:47.099Z,58.92
2023-04-18T02:48:17.442Z,58.85
2023-04-18T02:48:41.853Z,59.08
2023-04-18T02:49:05.578Z,59.04
2023-04-18T02:49:29.214Z,59.21
2023-04-18T02:49:52.409Z,59.10
2023-04-18T02:50:15.642Z,58.92
2023-04-18T02:50:38.966Z,59.01
2023-04-18T02:51:03.742Z,58.99
2023-04-18T02:51:28.254Z,58.96
2023-04-18T02:51:54.338Z,58.94
2023-04-18T02:52:17.346Z,59.00
2023-04-18T02:52:40.676Z,59.02
2023-04-18T02:53:04.136Z,59.00
2023-04-18T02:53:37.428Z,58.90
2023-04-18T02:54:00.749Z,59.03
2023-04-18T02:54:29.285Z,59.14
2023-04-18T02:54:57.813Z,59.16
2023-04-18T02:55:24.628Z,59.20
2023-04-18T02:55:48.372Z,59.22
2023-04-18T02:56:13.086Z,59.31
2023-04-18T02:56:54.824Z,59.18
2023-04-18T02:57:38.292Z,59.15
2023-04-18T02:58:35.966Z,59.16
2023-04-18T02:59:22.193Z,59.30
2023-04-18T03:00:05.083Z,59.47
2023-04-18T03:00:46.779Z,59.41
2023-04-18T03:01:10.020Z,59.40
2023-04-18T03:01:57.258Z,59.37
2023-04-18T03:02:21.225Z,59.35
2023-04-18T03:02:48.463Z,59.41
2023-04-18T03:03:44.227Z,59.43
2023-04-18T03:04:16.106Z,59.40
2023-04-18T03:04:42.263Z,59.31
2023-04-18T03:05:06.866Z,59.30
2023-04-18T03:05:29.971Z,59.46
2023-04-18T03:05:54.961Z,59.38
2023-04-18T03:06:18.484Z,59.35
2023-04-18T03:06:42.897Z,59.45
2023-04-18T03:07:06.445Z,59.51
2023-04-18T03:07:31.991Z,59.56
2023-04-18T03:07:55.920Z,59.66
2023-04-18T03:08:19.032Z,59.78
2023-04-18T03:08:42.861Z,59.73
2023-04-18T03:09:06.444Z,59.74
2023-04-18T03:09:31.955Z,59.77
2023-04-18T03:09:58.549Z,59.71
2023-04-18T03:10:25.342Z,59.51
2023-04-18T03:10:49.065Z,59.69
2023-04-18T03:11:12.694Z,59.80
2023-04-18T03:11:35.929Z,59.80
2023-04-18T03:11:59.433Z,59.76
2023-04-18T03:12:23.576Z,59.76
2023-04-18T03:12:47.920Z,59.88
2023-04-18T03:13:11.318Z,59.83
2023-04-18T03:13:34.585Z,59.77
2023-04-18T03:13:57.976Z,59.80
2023-04-18T03:14:22.721Z,59.71
2023-04-18T03:14:47.922Z,59.91
2023-04-18T03:15:12.020Z,59.72
2023-04-18T03:15:35.468Z,59.77
2023-04-18T03:15:58.955Z,59.80
2023-04-18T03:16:22.770Z,59.75
2023-04-18T03:16:46.149Z,59.89
2023-04-18T03:17:11.105Z,59.95
2023-04-18T03:17:36.949Z,60.06
2023-04-18T03:18:01.112Z,60.01
2023-04-18T03:18:27.051Z,60.13
2023-04-18T03:18:52.316Z,60.23
2023-04-18T03:19:15.777Z,60.03
2023-04-18T03:19:39.395Z,60.12
2023-04-18T03:20:06.988Z,60.06
2023-04-18T03:20:30.094Z,60.12
2023-04-18T03:20:53.452Z,60.16
2023-04-18T03:21:16.642Z,60.20
2023-04-18T03:21:40.306Z,60.17
2023-04-18T03:22:03.776Z,60.22
2023-04-18T03:22:27.295Z,60.23
2023-04-18T03:22:52.771Z,60.20
2023-04-18T03:23:19.761Z,60.28
2023-04-18T03:23:43.290Z,60.05
2023-04-18T03:24:07.538Z,60.14
2023-04-18T03:24:31.046Z,60.25
2023-04-18T03:24:55.806Z,60.20
2023-04-18T03:25:25.371Z,60.27
2023-04-18T03:25:49.490Z,60.29
2023-04-18T03:26:13.990Z,60.43
2023-04-18T03:26:37.361Z,60.38
2023-04-18T03:27:00.880Z,60.39
2023-04-18T03:27:24.303Z,60.31
2023-04-18T03:27:47.436Z,60.35
2023-04-18T03:28:11.757Z,60.43
2023-04-18T03:28:36.098Z,60.49
2023-04-18T03:28:59.435Z,60.58
2023-04-18T03:29:22.593Z,60.62
2023-04-18T03:29:45.706Z,60.69
2023-04-18T03:30:09.751Z,60.69
2023-04-18T03:30:34.024Z,60.69
2023-04-18T03:30:57.359Z,60.70
2023-04-18T03:31:20.692Z,60.73
2023-04-18T03:31:44.314Z,60.79
2023-04-18T03:32:07.508Z,60.79
2023-04-18T03:32:33.986Z,60.73
2023-04-18T03:32:57.321Z,60.77
2023-04-18T03:33:20.499Z,60.64
2023-04-18T03:33:45.795Z,60.70
2023-04-18T03:34:08.862Z,60.75
2023-04-18T03:34:32.426Z,60.84
2023-04-18T03:34:55.955Z,60.77
2023-04-18T03:35:19.371Z,60.83
2023-04-18T03:35:42.481Z,60.74
2023-04-18T03:36:06.319Z,60.88
2023-04-18T03:36:31.589Z,60.82
2023-04-18T03:36:55.304Z,60.87
2023-04-18T03:37:18.720Z,60.98
2023-04-18T03:37:45.310Z,60.94
2023-04-18T03:38:12.664Z,61.16
2023-04-18T03:38:35.835Z,60.99
2023-04-18T03:38:59.282Z,61.18
2023-04-18T03:39:22.581Z,61.07
2023-04-18T03:39:45.690Z,61.06
2023-04-18T03:40:09.619Z,61.11
2023-04-18T03:40:32.674Z,61.00
2023-04-18T03:41:00.860Z,61.02
2023-04-18T03:41:28.986Z,61.12
2023-04-18T03:41:52.816Z,60.99
2023-04-18T03:42:16.446Z,61.05
2023-04-18T03:42:39.969Z,61.10
2023-04-18T03:43:02.876Z,61.12
2023-04-18T03:43:26.697Z,61.04
2023-04-18T03:43:50.542Z,61.02
2023-04-18T03:44:13.798Z,60.97
2023-04-18T03:44:37.399Z,60.94
2023-04-18T03:45:00.693Z,61.00
2023-04-18T03:45:24.326Z,61.07
2023-04-18T03:45:47.772Z,61.03
2023-04-18T03:46:11.824Z,61.01
2023-04-18T03:46:35.251Z,61.00
2023-04-18T03:46:59.135Z,61.04
2023-04-18T03:47:22.723Z,61.12
2023-04-18T03:47:49.894Z,61.11
2023-04-18T03:48:14.402Z,61.11
2023-04-18T03:48:38.947Z,61.26
2023-04-18T03:49:07.086Z,61.23
2023-04-18T03:49:31.109Z,61.23
2023-04-18T03:49:54.634Z,61.21
2023-04-18T03:50:18.108Z,61.33
2023-04-18T03:50:41.792Z,61.42
2023-04-18T03:51:06.119Z,61.35
2023-04-18T03:51:32.811Z,61.37
2023-04-18T03:51:55.930Z,61.41
2023-04-18T03:52:20.575Z,61.21
2023-04-18T03:52:43.588Z,61.44
2023-04-18T03:53:07.116Z,61.44
2023-04-18T03:53:31.172Z,61.32
2023-04-18T03:53:54.468Z,61.45
2023-04-18T03:54:19.421Z,61.38
2023-04-18T03:54:42.741Z,61.51
2023-04-18T03:55:06.368Z,61.46
2023-04-18T03:55:30.401Z,61.52
2023-04-18T03:55:54.046Z,61.57
2023-04-18T03:56:19.899Z,61.54
2023-04-18T03:56:47.821Z,61.51
2023-04-18T03:57:11.455Z,61.50
2023-04-18T03:57:34.459Z,61.52
2023-04-18T03:57:59.419Z,61.46
2023-04-18T03:58:24.168Z,61.48
2023-04-18T03:58:51.676Z,61.48
2023-04-18T03:59:15.915Z,61.46
2023-04-18T03:59:41.692Z,61.50
2023-04-18T04:00:06.133Z,61.49
2023-04-18T04:00:38.862Z,61.47
2023-04-18T04:01:03.102Z,61.39
2023-04-18T04:01:27.240Z,61.44
2023-04-18T04:01:50.391Z,61.44
2023-04-18T04:02:14.162Z,61.50
2023-04-18T04:02:37.751Z,61.42
2023-04-18T04:03:01.232Z,61.48
2023-04-18T04:03:25.325Z,61.50
2023-04-18T04:03:48.816Z,61.49
2023-04-18T04:04:14.778Z,61.51
2023-04-18T04:04:38.433Z,61.42
2023-04-18T04:05:03.377Z,61.43
2023-04-18T04:05:27.382Z,61.49
2023-04-18T04:05:50.391Z,61.60
2023-04-18T04:06:13.918Z,61.73
2023-04-18T04:06:37.130Z,61.65
2023-04-18T04:07:00.272Z,61.69
2023-04-18T04:07:23.877Z,61.75
2023-04-18T04:07:47.391Z,61.81
2023-04-18T04:08:10.819Z,61.80
2023-04-18T04:08:34.129Z,61.80
2023-04-18T04:08:57.452Z,61.80
2023-04-18T04:09:21.720Z,61.86
2023-04-18T04:09:46.345Z,62.15
2023-04-18T04:10:09.963Z,61.91
2023-04-18T04:10:33.395Z,61.99
2023-04-18T04:10:56.601Z,61.88
2023-04-18T04:11:19.975Z,62.01
2023-04-18T04:11:43.646Z,61.93
2023-04-18T04:12:07.680Z,62.00
2023-04-18T04:12:31.204Z,62.04
2023-04-18T04:12:54.651Z,61.94
2023-04-18T04:13:18.186Z,62.04
2023-04-18T04:13:41.480Z,62.11
2023-04-18T04:14:05.510Z,61.99
2023-04-18T04:14:33.636Z,62.13
2023-04-18T04:14:56.638Z,62.11
2023-04-18T04:15:20.068Z,62.09
2023-04-18T04:15:47.981Z,62.23
2023-04-18T04:16:11.331Z,62.02
2023-04-18T04:16:34.448Z,62.23
2023-04-18T04:16:57.940Z,62.20
2023-04-18T04:17:21.671Z,62.33
2023-04-18T04:17:44.822Z,62.34
2023-04-18T04:18:09.112Z,62.24
2023-04-18T04:18:34.532Z,62.39
2023-04-18T04:18:58.623Z,62.35
2023-04-18T04:19:27.368Z,62.29
2023-04-18T04:19:59.183Z,62.25
2023-04-18T04:20:25.927Z,62.28
2023-04-18T04:20:55.422Z,62.40
2023-04-18T04:21:28.553Z,62.47
2023-04-18T04:21:52.485Z,62.54
2023-04-18T04:22:16.406Z,62.46
2023-04-18T04:22:39.434Z,62.38
2023-04-18T04:23:02.966Z,62.46
2023-04-18T04:23:26.913Z,62.35
2023-04-18T04:23:50.117Z,62.45
2023-04-18T04:24:23.859Z,62.38
2023-04-18T04:24:47.800Z,62.46
2023-04-18T04:25:13.975Z,62.33
2023-04-18T04:25:38.822Z,62.33
2023-04-18T04:26:08.305Z,62.34
2023-04-18T04:26:43.355Z,62.21
2023-04-18T04:27:11.276Z,62.28
2023-04-18T04:27:36.955Z,62.45
2023-04-18T04:28:02.018Z,62.45
2023-04-18T04:28:26.449Z,62.45
2023-04-18T04:28:54.066Z,62.58
2023-04-18T04:29:19.441Z,62.53
2023-04-18T04:29:43.978Z,62.63
2023-04-18T04:30:13.224Z,62.65
2023-04-18T04:30:38.485Z,62.67
2023-04-18T04:31:02.046Z,62.67
2023-04-18T04:31:25.593Z,62.81
2023-04-18T04:31:48.837Z,62.74
2023-04-18T04:32:20.501Z,62.60
2023-04-18T04:32:44.836Z,62.46
2023-04-18T04:33:09.254Z,62.24
2023-04-18T04:33:33.471Z,62.14
2023-04-18T04:33:58.147Z,62.09
2023-04-18T04:34:21.952Z,62.02
2023-04-18T04:34:46.959Z,62.05
2023-04-18T04:35:11.867Z,61.84
2023-04-18T04:35:36.819Z,61.89
2023-04-18T04:36:01.393Z,61.78
2023-04-18T04:36:27.290Z,61.76
2023-04-18T04:36:51.798Z,61.77
2023-04-18T04:37:15.317Z,61.52
2023-04-18T04:37:48.348Z,61.53
2023-04-18T04:38:20.180Z,61.40
2023-04-18T04:38:44.509Z,61.45
2023-04-18T04:39:08.842Z,61.41
2023-04-18T04:39:47.294Z,61.36
2023-04-18T04:40:30.550Z,61.41
2023-04-18T04:41:12.901Z,61.32
2023-04-18T04:41:37.844Z,61.11
2023-04-18T04:42:04.543Z,60.93
2023-04-18T04:42:36.051Z,60.83
2023-04-18T04:43:04.406Z,60.69
2023-04-18T04:43:32.400Z,60.61
2023-04-18T04:43:55.419Z,60.59
2023-04-18T04:44:22.131Z,60.32
2023-04-18T04:44:45.863Z,60.38
2023-04-18T04:45:09.574Z,60.21
2023-04-18T04:45:33.443Z,59.89
2023-04-18T04:45:57.716Z,59.92
2023-04-18T04:46:21.037Z,59.74
2023-04-18T04:46:45.800Z,59.69
2023-04-18T04:47:13.832Z,59.59
2023-04-18T04:47:37.153Z,59.62
2023-04-18T04:48:00.273Z,59.55
2023-04-18T04:48:25.033Z,59.52
2023-04-18T04:48:49.957Z,59.47
2023-04-18T04:49:12.988Z,59.26
2023-04-18T04:49:36.090Z,59.29
2023-04-18T04:50:00.324Z,59.22
2023-04-18T04:50:23.642Z,59.23
2023-04-18T04:50:53.828Z,59.14
2023-04-18T04:51:16.922Z,59.24
2023-04-18T04:51:40.767Z,59.12
2023-04-18T04:52:03.765Z,59.15
2023-04-18T04:52:28.112Z,59.05
2023-04-18T04:52:51.527Z,59.05
2023-04-18T04:53:14.746Z,59.12
2023-04-18T04:53:38.474Z,59.10
2023-04-18T04:54:02.615Z,59.07
2023-04-18T04:54:26.239Z,58.75
2023-04-18T04:54:50.882Z,58.78
2023-04-18T04:55:14.405Z,58.89
2023-04-18T04:55:38.792Z,58.80
2023-04-18T04:56:02.064Z,58.82
2023-04-18T04:56:25.800Z,58.65
2023-04-18T04:56:49.010Z,58.75
2023-04-18T04:57:12.224Z,58.72
2023-04-18T04:57:36.155Z,58.68
2023-04-18T04:58:01.025Z,58.63
2023-04-18T04:58:54.293Z,58.59
2023-04-18T04:59:20.891Z,58.62
2023-04-18T04:59:44.207Z,58.69
2023-04-18T05:00:08.748Z,58.63
2023-04-18T05:00:31.875Z,58.50
2023-04-18T05:00:55.018Z,58.40
2023-04-18T05:01:18.448Z,58.30
2023-04-18T05:01:41.679Z,58.17
2023-04-18T05:02:05.077Z,58.32
2023-04-18T05:02:28.664Z,58.30
2023-04-18T05:02:55.364Z,58.20
2023-04-18T05:03:19.610Z,58.11
2023-04-18T05:03:43.468Z,58.16
2023-04-18T05:04:06.924Z,58.04
2023-04-18T05:04:30.367Z,58.19
2023-04-18T05:04:53.525Z,58.24
2023-04-18T05:05:16.809Z,58.37
2023-04-18T05:05:40.149Z,58.33
2023-04-18T05:06:03.340Z,58.41
2023-04-18T05:06:26.636Z,58.46
2023-04-18T05:06:49.688Z,58.57
2023-04-18T05:07:12.776Z,58.50
2023-04-18T05:07:36.028Z,58.60
2023-04-18T05:07:59.263Z,58.51
2023-04-18T05:08:22.434Z,58.73
2023-04-18T05:08:45.849Z,58.74
2023-04-18T05:09:09.071Z,58.70
2023-04-18T05:09:32.184Z,58.71
2023-04-18T05:09:55.522Z,58.74
2023-04-18T05:10:18.537Z,58.78
2023-04-18T05:10:42.751Z,58.82
2023-04-18T05:11:06.275Z,58.84
2023-04-18T05:11:29.489Z,58.84
2023-04-18T05:11:52.502Z,58.74
2023-04-18T05:12:15.598Z,58.92
2023-04-18T05:12:38.628Z,58.88
2023-04-18T05:13:01.737Z,58.81
2023-04-18T05:13:24.878Z,58.88
2023-04-18T05:13:47.981Z,58.96
2023-04-18T05:14:12.925Z,58.85
2023-04-18T05:14:36.472Z,58.86
2023-04-18T05:14:59.566Z,58.65
2023-04-18T05:15:23.099Z,58.79
2023-04-18T05:15:46.305Z,58.82